createdAt,value
2023-05-06T00:01:05.195Z,77.93
2023-05-06T00:03:34.528Z,78.16
2023-05-06T00:06:07.018Z,78.61
2023-05-06T00:08:36.738Z,78.56
2023-05-06T00:11:04.988Z,78.80
2023-05-06T00:13:33.179Z,78.99
2023-05-06T00:16:01.409Z,79.28
2023-05-06T00:18:29.665Z,78.98
2023-05-06T00:20:59.899Z,79.15
2023-05-06T00:23:28.265Z,79.21
2023-05-06T00:25:57.780Z,79.09
2023-05-06T00:28:25.933Z,78.97
2023-05-06T00:30:54.118Z,78.63
2023-05-06T00:33:22.351Z,78.65
2023-05-06T00:35:56.559Z,78.58
2023-05-06T00:38:29.988Z,78.49
2023-05-06T00:40:59.545Z,78.34
2023-05-06T00:43:33.814Z,78.73
2023-05-06T00:46:02.436Z,78.42
2023-05-06T00:48:30.993Z,78.35
2023-05-06T00:50:59.504Z,78.39
2023-05-06T00:53:27.814Z,79.24
2023-05-06T00:55:57.035Z,78.71
2023-05-06T00:58:26.815Z,78.92
2023-05-06T01:00:56.344Z,79.12
2023-05-06T01:03:26.989Z,79.20
2023-05-06T01:06:09.937Z,79.32
2023-05-06T01:08:48.105Z,79.40
2023-05-06T01:11:25.597Z,78.80
2023-05-06T01:14:03.772Z,78.54
2023-05-06T01:16:34.978Z,78.31
2023-05-06T01:19:10.108Z,78.46
2023-05-06T01:21:47.204Z,78.69
2023-05-06T01:24:16.793Z,79.19
2023-05-06T01:26:45.149Z,79.41
2023-05-06T01:29:16.105Z,79.39
2023-05-06T01:31:49.336Z,79.54
2023-05-06T01:34:27.558Z,79.07
2023-05-06T01:37:07.973Z,79.05
2023-05-06T01:39:39.502Z,79.10
2023-05-06T01:42:11.609Z,78.82
2023-05-06T01:44:41.089Z,78.94
2023-05-06T01:47:11.389Z,79.09
2023-05-06T01:49:40.995Z,79.51
2023-05-06T01:52:09.799Z,79.24
2023-05-06T01:54:39.443Z,79.50
2023-05-06T01:57:07.690Z,79.51
2023-05-06T01:59:36.074Z,79.37
2023-05-06T02:02:04.281Z,79.31
2023-05-06T02:04:33.055Z,79.57
2023-05-06T02:07:01.541Z,79.43
2023-05-06T02:09:29.777Z,79.80
2023-05-06T02:12:03.911Z,79.72
2023-05-06T02:14:32.422Z,79.34
2023-05-06T02:17:06.897Z,79.37
2023-05-06T02:19:40.957Z,79.70
2023-05-06T02:22:11.300Z,79.77
2023-05-06T02:24:39.604Z,79.79
2023-05-06T02:27:09.483Z,79.80
2023-05-06T02:29:37.573Z,79.61
2023-05-06T02:32:06.298Z,79.53
2023-05-06T02:34:34.663Z,79.56
2023-05-06T02:37:03.263Z,79.97
2023-05-06T02:39:31.504Z,80.13
2023-05-06T02:41:59.708Z,79.85
2023-05-06T02:44:32.392Z,79.93
2023-05-06T02:47:02.768Z,80.18
2023-05-06T02:49:30.914Z,79.98
2023-05-06T02:51:59.106Z,80.08
2023-05-06T02:54:27.402Z,79.84
2023-05-06T02:56:55.957Z,79.58
2023-05-06T02:59:24.512Z,79.27
2023-05-06T03:01:54.038Z,78.99
2023-05-06T03:04:22.433Z,78.87
2023-05-06T03:06:50.746Z,78.91
2023-05-06T03:09:19.142Z,79.22
2023-05-06T03:11:47.753Z,79.69
2023-05-06T03:14:16.242Z,79.74
2023-05-06T03:16:44.615Z,79.62
2023-05-06T03:19:14.242Z,79.45
2023-05-06T03:21:44.659Z,79.45
2023-05-06T03:24:12.874Z,79.78
2023-05-06T03:26:41.246Z,79.38
2023-05-06T03:29:11.621Z,79.62
2023-05-06T03:31:40.227Z,79.52
2023-05-06T03:34:08.537Z,79.87
2023-05-06T03:36:38.775Z,79.86
2023-05-06T03:39:07.289Z,79.55
2023-05-06T03:41:37.798Z,79.63
2023-05-06T03:44:06.678Z,79.84
2023-05-06T03:46:34.994Z,79.62
2023-05-06T03:49:05.959Z,79.95
2023-05-06T03:51:34.396Z,79.74
2023-05-06T03:54:04.732Z,79.42
2023-05-06T03:56:36.147Z,80.26
2023-05-06T03:59:05.297Z,79.74
2023-05-06T04:01:33.631Z,79.31
2023-05-06T04:04:02.147Z,79.69
2023-05-06T04:06:31.147Z,79.69
2023-05-06T04:08:59.540Z,80.25
2023-05-06T04:11:30.009Z,79.88
2023-05-06T04:13:59.758Z,79.64
2023-05-06T04:16:28.057Z,79.89
2023-05-06T04:19:02.534Z,79.90
2023-05-06T04:21:34.912Z,80.00
2023-05-06T04:24:08.492Z,79.31
2023-05-06T04:26:41.420Z,79.10
2023-05-06T04:29:10.638Z,78.98
2023-05-06T04:31:47.355Z,79.24
2023-05-06T04:34:16.990Z,78.97
2023-05-06T04:36:49.522Z,78.99
2023-05-06T04:39:24.960Z,78.42
2023-05-06T04:41:54.542Z,78.43
2023-05-06T04:44:29.843Z,78.61
2023-05-06T04:46:58.881Z,78.29
2023-05-06T04:49:27.364Z,78.31
2023-05-06T04:51:57.031Z,78.41
2023-05-06T04:54:28.035Z,78.66
2023-05-06T04:56:57.725Z,78.33
2023-05-06T04:59:26.206Z,78.22
2023-05-06T05:01:56.181Z,78.08
2023-05-06T05:04:24.505Z,78.31
2023-05-06T05:06:52.927Z,78.05
2023-05-06T05:09:24.009Z,77.87
2023-05-06T05:11:52.309Z,77.57
2023-05-06T05:14:23.497Z,77.87
2023-05-06T05:16:51.830Z,77.84
2023-05-06T05:19:26.140Z,78.00
2023-05-06T05:21:56.905Z,77.90
2023-05-06T05:24:26.971Z,78.08
2023-05-06T05:26:55.269Z,78.30
2023-05-06T05:29:24.954Z,78.68
2023-05-06T05:31:57.603Z,78.89
2023-05-06T05:34:27.587Z,78.53
2023-05-06T05:36:57.584Z,78.29
2023-05-06T05:39:30.960Z,78.24
2023-05-06T05:41:59.568Z,78.12
2023-05-06T05:44:31.718Z,78.02
2023-05-06T05:47:00.009Z,77.43
2023-05-06T05:49:29.756Z,77.69
2023-05-06T05:51:58.175Z,77.42
2023-05-06T05:54:27.410Z,77.63
2023-05-06T05:56:58.063Z,77.04
2023-05-06T05:59:27.144Z,76.10
2023-05-06T06:02:01.579Z,76.43
2023-05-06T06:04:30.380Z,76.10
2023-05-06T06:07:01.796Z,75.84
2023-05-06T06:09:31.547Z,75.96
2023-05-06T06:12:05.930Z,76.16
2023-05-06T06:14:36.688Z,76.38
2023-05-06T06:17:07.416Z,76.42
2023-05-06T06:19:36.476Z,76.74
2023-05-06T06:22:04.756Z,77.10
2023-05-06T06:24:35.414Z,77.39
2023-05-06T06:27:06.253Z,77.69
2023-05-06T06:29:34.462Z,77.88
2023-05-06T06:32:04.457Z,77.46
2023-05-06T06:34:34.065Z,77.25
2023-05-06T06:37:08.006Z,76.61
2023-05-06T06:39:36.440Z,77.09
2023-05-06T06:42:06.878Z,77.02
2023-05-06T06:44:43.706Z,76.45
2023-05-06T06:47:11.897Z,76.10
2023-05-06T06:49:41.424Z,76.47
2023-05-06T06:52:10.534Z,76.29
2023-05-06T06:54:39.515Z,75.89
2023-05-06T06:57:08.840Z,76.09
2023-05-06T06:59:39.765Z,76.13
2023-05-06T07:02:10.864Z,75.76
2023-05-06T07:04:39.100Z,75.51
2023-05-06T07:07:10.837Z,74.82
2023-05-06T07:09:40.284Z,74.64
2023-05-06T07:12:11.235Z,74.55
2023-05-06T07:14:42.608Z,73.79
2023-05-06T07:17:11.997Z,72.41
2023-05-06T07:19:40.419Z,73.14
2023-05-06T07:22:13.171Z,72.31
2023-05-06T07:24:41.556Z,72.41
2023-05-06T07:27:12.851Z,71.33
2023-05-06T07:29:41.233Z,71.95
2023-05-06T07:32:09.926Z,72.01
2023-05-06T07:34:38.156Z,70.08
2023-05-06T07:37:07.964Z,70.28
2023-05-06T07:39:40.504Z,70.34
2023-05-06T07:42:12.949Z,70.17
2023-05-06T07:44:43.979Z,70.07
2023-05-06T07:47:12.319Z,70.49
2023-05-06T07:49:40.989Z,69.07
2023-05-06T07:52:11.905Z,67.85
2023-05-06T07:54:44.098Z,67.67
2023-05-06T07:57:12.562Z,66.56
2023-05-06T07:59:40.891Z,65.45
2023-05-06T08:02:11.451Z,63.55
2023-05-06T08:04:39.891Z,62.25
2023-05-06T08:07:08.896Z,59.10
2023-05-06T08:09:37.322Z,58.17
2023-05-06T08:12:08.538Z,58.33
2023-05-06T08:14:36.984Z,57.01
2023-05-06T08:17:05.856Z,56.31
2023-05-06T08:19:34.104Z,55.82
2023-05-06T08:22:02.576Z,54.75
2023-05-06T08:24:30.976Z,54.39
2023-05-06T08:26:59.334Z,54.43
2023-05-06T08:29:28.905Z,54.47
2023-05-06T08:31:57.328Z,54.49
2023-05-06T08:34:25.661Z,54.62
2023-05-06T08:36:53.963Z,55.04
2023-05-06T08:39:22.322Z,55.54
2023-05-06T08:41:53.597Z,53.97
2023-05-06T08:44:26.089Z,52.79
2023-05-06T08:46:56.322Z,52.16
2023-05-06T08:49:24.986Z,52.69
2023-05-06T08:51:53.615Z,51.32
2023-05-06T08:54:24.778Z,51.40
2023-05-06T08:56:54.955Z,51.95
2023-05-06T08:59:26.793Z,52.23
2023-05-06T09:01:56.604Z,49.88
2023-05-06T09:04:24.949Z,50.62
2023-05-06T09:06:53.406Z,50.27
2023-05-06T09:09:21.807Z,48.77
2023-05-06T09:11:54.104Z,49.94
2023-05-06T09:14:23.441Z,50.73
2023-05-06T09:16:58.531Z,50.23
2023-05-06T09:19:28.479Z,49.12
2023-05-06T09:21:57.304Z,46.99
2023-05-06T09:24:26.340Z,48.12
2023-05-06T09:26:55.503Z,47.54
2023-05-06T09:29:25.251Z,47.87
2023-05-06T09:31:56.995Z,48.84
2023-05-06T09:34:25.685Z,47.21
2023-05-06T09:36:57.233Z,45.62
2023-05-06T09:39:27.545Z,48.61
2023-05-06T09:41:56.576Z,46.19
2023-05-06T09:44:26.966Z,44.61
2023-05-06T09:47:00.906Z,45.98
2023-05-06T09:49:45.721Z,45.38
2023-05-06T09:52:15.963Z,45.40
2023-05-06T09:54:46.840Z,47.21
2023-05-06T09:57:17.143Z,45.21
2023-05-06T09:59:48.610Z,44.31
2023-05-06T10:02:19.682Z,45.71
2023-05-06T10:04:51.166Z,43.66
2023-05-06T10:07:23.768Z,45.18
2023-05-06T10:09:55.274Z,42.76
2023-05-06T10:12:23.653Z,42.50
2023-05-06T10:14:51.993Z,42.89
2023-05-06T10:17:26.711Z,43.35
2023-05-06T10:19:59.149Z,41.75
2023-05-06T10:22:42.550Z,43.98
2023-05-06T10:25:19.422Z,40.10
2023-05-06T10:27:51.228Z,42.36
2023-05-06T10:30:20.956Z,40.70
2023-05-06T10:32:53.315Z,38.75
2023-05-06T10:35:37.345Z,38.25
2023-05-06T10:38:20.518Z,37.84
2023-05-06T10:40:53.756Z,39.22
2023-05-06T10:43:25.878Z,38.97
2023-05-06T10:46:09.188Z,37.95
2023-05-06T10:48:41.300Z,39.92
2023-05-06T10:51:28.448Z,39.93
2023-05-06T10:54:03.849Z,38.45
2023-05-06T10:56:34.553Z,39.12
2023-05-06T10:59:07.944Z,39.39
2023-05-06T11:01:39.356Z,39.59
2023-05-06T11:04:11.267Z,40.35
2023-05-06T11:06:42.639Z,41.29
2023-05-06T11:09:19.107Z,37.46
2023-05-06T11:12:07.018Z,41.14
2023-05-06T11:14:40.198Z,38.35
2023-05-06T11:17:11.089Z,40.73
2023-05-06T11:19:41.209Z,41.86
2023-05-06T11:22:10.588Z,39.12
2023-05-06T11:24:41.839Z,40.64
2023-05-06T11:27:19.565Z,41.76
2023-05-06T11:29:47.838Z,41.01
2023-05-06T11:32:24.373Z,39.93
2023-05-06T11:34:57.585Z,43.62
2023-05-06T11:37:27.475Z,40.28
2023-05-06T11:39:56.342Z,38.55
2023-05-06T11:42:29.751Z,40.75
2023-05-06T11:45:04.814Z,38.34
2023-05-06T11:47:33.146Z,38.25
2023-05-06T11:50:07.823Z,40.50
2023-05-06T11:52:37.249Z,38.90
2023-05-06T11:55:11.166Z,40.18
2023-05-06T11:57:48.347Z,39.31
2023-05-06T12:00:18.789Z,37.06
2023-05-06T12:02:47.379Z,37.84
2023-05-06T12:05:17.297Z,39.51
2023-05-06T12:07:46.588Z,38.15
2023-05-06T12:10:19.886Z,36.79
2023-05-06T12:12:51.681Z,36.09
2023-05-06T12:15:20.128Z,38.37
2023-05-06T12:17:49.111Z,39.31
2023-05-06T12:20:20.060Z,38.64
2023-05-06T12:23:05.714Z,35.33
2023-05-06T12:25:34.328Z,37.28
2023-05-06T12:28:03.100Z,35.44
2023-05-06T12:30:32.090Z,37.06
2023-05-06T12:33:03.806Z,36.78
2023-05-06T12:35:34.032Z,36.63
2023-05-06T12:38:14.446Z,36.14
2023-05-06T12:40:44.762Z,35.51
2023-05-06T12:43:13.660Z,36.35
2023-05-06T12:45:42.189Z,36.63
2023-05-06T12:48:17.717Z,37.03
2023-05-06T12:50:47.991Z,36.85
2023-05-06T12:53:32.482Z,37.29
2023-05-06T12:56:01.600Z,36.58
2023-05-06T12:58:29.755Z,37.48
2023-05-06T13:00:58.187Z,37.99
2023-05-06T13:03:27.342Z,37.67
2023-05-06T13:05:57.313Z,39.17
2023-05-06T13:08:25.773Z,38.40
2023-05-06T13:10:54.000Z,37.79
2023-05-06T13:13:22.237Z,37.77
2023-05-06T13:15:50.602Z,36.84
2023-05-06T13:18:19.186Z,38.46
2023-05-06T13:20:47.409Z,37.41
2023-05-06T13:23:19.410Z,35.53
2023-05-06T13:26:02.795Z,37.38
2023-05-06T13:28:35.584Z,35.42
2023-05-06T13:31:04.024Z,35.56
2023-05-06T13:33:32.570Z,35.58
2023-05-06T13:36:02.705Z,36.55
2023-05-06T13:38:33.617Z,36.05
2023-05-06T13:41:03.370Z,37.34
2023-05-06T13:43:31.612Z,36.45
2023-05-06T13:45:59.939Z,38.22
2023-05-06T13:48:28.323Z,35.97
2023-05-06T13:50:57.732Z,37.45
2023-05-06T13:53:26.067Z,36.32
2023-05-06T13:55:55.822Z,39.40
2023-05-06T13:58:24.681Z,38.39
2023-05-06T14:00:53.214Z,36.20
2023-05-06T14:03:21.674Z,36.58
2023-05-06T14:05:49.968Z,35.85
2023-05-06T14:08:18.439Z,35.39
2023-05-06T14:10:47.063Z,33.85
2023-05-06T14:13:17.079Z,35.66
2023-05-06T14:15:45.463Z,36.13
2023-05-06T14:18:13.987Z,36.20
2023-05-06T14:20:42.402Z,35.90
2023-05-06T14:23:12.341Z,36.78
2023-05-06T14:25:40.544Z,35.05
2023-05-06T14:28:10.443Z,35.65
2023-05-06T14:30:40.165Z,36.81
2023-05-06T14:33:12.172Z,35.73
2023-05-06T14:35:42.655Z,36.12
2023-05-06T14:38:11.988Z,35.47
2023-05-06T14:40:40.385Z,36.88
2023-05-06T14:43:11.790Z,35.25
2023-05-06T14:45:41.457Z,37.41
2023-05-06T14:48:10.391Z,37.08
2023-05-06T14:50:38.730Z,36.59
2023-05-06T14:53:07.404Z,38.38
2023-05-06T14:55:36.366Z,36.67
2023-05-06T14:58:04.804Z,38.37
2023-05-06T15:00:33.301Z,36.63
2023-05-06T15:03:04.584Z,37.92
2023-05-06T15:05:32.942Z,37.50
2023-05-06T15:08:01.417Z,37.65
2023-05-06T15:10:29.755Z,36.83
2023-05-06T15:12:59.092Z,38.09
2023-05-06T15:15:27.593Z,40.64
2023-05-06T15:17:55.905Z,39.96
2023-05-06T15:20:26.322Z,39.90
2023-05-06T15:22:56.403Z,39.45
2023-05-06T15:25:34.920Z,37.64
2023-05-06T15:28:06.291Z,40.78
2023-05-06T15:30:34.629Z,40.26
2023-05-06T15:33:03.314Z,39.99
2023-05-06T15:35:33.518Z,41.48
2023-05-06T15:38:04.075Z,39.98
2023-05-06T15:40:32.492Z,40.00
2023-05-06T15:43:00.836Z,41.77
2023-05-06T15:45:29.459Z,41.82
2023-05-06T15:47:57.891Z,43.14
2023-05-06T15:53:02.357Z,47.67
2023-05-06T15:55:41.453Z,50.05
2023-05-06T15:58:13.645Z,52.32
2023-05-06T16:00:42.118Z,55.13
2023-05-06T16:03:13.569Z,60.62
2023-05-06T16:05:41.966Z,64.92
2023-05-06T16:08:14.196Z,65.29
2023-05-06T16:10:42.661Z,66.27
2023-05-06T16:13:11.452Z,67.64
2023-05-06T16:15:39.808Z,67.71
2023-05-06T16:18:08.548Z,68.47
2023-05-06T16:20:36.811Z,70.59
2023-05-06T16:23:06.896Z,71.68
2023-05-06T16:25:38.306Z,73.25
2023-05-06T16:28:07.704Z,74.28
2023-05-06T16:30:36.143Z,74.49
2023-05-06T16:33:05.301Z,73.31
2023-05-06T16:35:36.346Z,72.46
2023-05-06T16:38:04.866Z,71.69
2023-05-06T16:40:33.316Z,72.89
2023-05-06T16:43:03.371Z,73.31
2023-05-06T16:45:33.910Z,72.79
2023-05-06T16:48:02.415Z,73.33
2023-05-06T16:50:31.667Z,72.26
2023-05-06T16:52:59.952Z,72.41
2023-05-06T16:55:29.613Z,71.98
2023-05-06T16:58:00.861Z,72.25
2023-05-06T17:00:31.369Z,71.90
2023-05-06T17:02:59.922Z,71.98
2023-05-06T17:05:30.936Z,71.68
2023-05-06T17:07:59.289Z,71.42
2023-05-06T17:10:29.375Z,71.50
2023-05-06T17:12:57.980Z,70.85
2023-05-06T17:15:26.696Z,70.67
2023-05-06T17:17:57.758Z,70.33
2023-05-06T17:20:26.087Z,70.63
2023-05-06T17:22:54.374Z,70.06
2023-05-06T17:25:24.344Z,70.24
2023-05-06T17:27:53.867Z,70.01
2023-05-06T17:30:22.704Z,69.76
2023-05-06T17:32:51.097Z,70.18
2023-05-06T17:35:21.285Z,70.14
2023-05-06T17:37:49.746Z,70.46
2023-05-06T17:40:18.482Z,70.94
2023-05-06T17:42:46.722Z,70.83
2023-05-06T17:45:15.225Z,70.73
2023-05-06T17:47:43.740Z,71.36
2023-05-06T17:50:13.517Z,70.98
2023-05-06T17:52:43.051Z,70.67
2023-05-06T17:55:16.845Z,70.51
2023-05-06T17:57:47.548Z,69.96
2023-05-06T18:00:17.796Z,70.19
2023-05-06T18:02:46.517Z,70.07
2023-05-06T18:05:15.566Z,70.60
2023-05-06T18:07:45.563Z,70.43
2023-05-06T18:10:14.399Z,70.41
2023-05-06T18:12:45.417Z,70.78
2023-05-06T18:15:13.837Z,71.32
2023-05-06T18:17:42.167Z,71.45
2023-05-06T18:20:13.715Z,71.15
2023-05-06T18:22:46.432Z,71.09
2023-05-06T18:25:19.679Z,71.51
2023-05-06T18:27:48.255Z,71.16
2023-05-06T18:30:17.101Z,71.10
2023-05-06T18:32:45.309Z,71.04
2023-05-06T18:35:13.715Z,71.15
2023-05-06T18:37:41.961Z,71.88
2023-05-06T18:40:15.793Z,72.86
2023-05-06T18:42:43.965Z,72.51
2023-05-06T18:45:13.258Z,72.10
2023-05-06T18:47:41.684Z,71.71
2023-05-06T18:50:11.049Z,71.62
2023-05-06T18:52:39.281Z,72.12
2023-05-06T18:55:09.071Z,72.41
2023-05-06T18:57:39.684Z,72.97
2023-05-06T19:00:11.113Z,72.80
2023-05-06T19:02:39.463Z,72.68
2023-05-06T19:05:09.974Z,72.75
2023-05-06T19:07:38.375Z,72.72
2023-05-06T19:10:08.773Z,72.58
2023-05-06T19:12:38.465Z,72.56
2023-05-06T19:15:09.070Z,72.59
2023-05-06T19:17:37.420Z,72.98
2023-05-06T19:20:10.979Z,73.31
2023-05-06T19:22:39.571Z,72.69
2023-05-06T19:25:10.196Z,72.70
2023-05-06T19:27:39.920Z,73.38
2023-05-06T19:30:13.603Z,73.64
2023-05-06T19:32:42.319Z,73.54
2023-05-06T19:35:11.804Z,73.33
2023-05-06T19:37:40.472Z,73.07
2023-05-06T19:40:11.336Z,72.99
2023-05-06T19:42:40.952Z,73.19
2023-05-06T19:45:11.846Z,73.46
2023-05-06T19:47:40.849Z,73.44
2023-05-06T19:50:13.783Z,73.69
2023-05-06T19:52:43.303Z,74.30
2023-05-06T19:55:12.739Z,73.92
2023-05-06T19:57:42.645Z,73.93
2023-05-06T20:00:13.983Z,73.93
2023-05-06T20:02:42.312Z,73.85
2023-05-06T20:05:11.391Z,73.60
2023-05-06T20:07:41.792Z,73.60
2023-05-06T20:10:13.508Z,73.50
2023-05-06T20:12:43.267Z,73.58
2023-05-06T20:15:12.187Z,73.54
2023-05-06T20:17:40.782Z,73.04
2023-05-06T20:20:11.671Z,73.03
2023-05-06T20:22:41.455Z,73.11
2023-05-06T20:25:14.422Z,73.16
2023-05-06T20:27:44.838Z,73.01
2023-05-06T20:30:13.287Z,73.10
2023-05-06T20:32:42.182Z,73.02
2023-05-06T20:35:12.248Z,72.97
2023-05-06T20:37:41.319Z,72.90
2023-05-06T20:40:11.453Z,72.94
2023-05-06T20:42:39.716Z,72.90
2023-05-06T20:45:11.446Z,72.77
2023-05-06T20:47:40.133Z,72.85
2023-05-06T20:50:16.684Z,72.82
2023-05-06T20:52:46.133Z,72.82
2023-05-06T20:55:15.350Z,73.02
2023-05-06T20:57:44.181Z,73.04
2023-05-06T21:00:14.767Z,73.17
2023-05-06T21:02:43.150Z,73.48
2023-05-06T21:05:12.347Z,73.50
2023-05-06T21:07:40.870Z,73.62
2023-05-06T21:10:11.328Z,73.84
2023-05-06T21:12:39.808Z,74.09
2023-05-06T21:15:14.600Z,74.24
2023-05-06T21:17:44.196Z,74.77
2023-05-06T21:20:14.098Z,75.17
2023-05-06T21:22:42.410Z,75.16
2023-05-06T21:25:13.190Z,75.74
2023-05-06T21:27:43.506Z,76.06
2023-05-06T21:30:14.134Z,75.98
2023-05-06T21:32:42.323Z,75.67
2023-05-06T21:35:13.754Z,75.56
2023-05-06T21:37:41.966Z,75.75
2023-05-06T21:40:13.668Z,76.17
2023-05-06T21:42:41.868Z,76.43
2023-05-06T21:45:13.327Z,75.90
2023-05-06T21:47:42.693Z,75.66
2023-05-06T21:50:12.515Z,75.58
2023-05-06T21:52:40.820Z,75.18
2023-05-06T21:55:10.364Z,75.38
2023-05-06T21:57:38.832Z,75.27
2023-05-06T22:00:11.959Z,75.15
2023-05-06T22:02:42.020Z,75.52
2023-05-06T22:05:11.384Z,75.85
2023-05-06T22:07:39.792Z,75.98
2023-05-06T22:10:12.300Z,76.47
2023-05-06T22:12:40.718Z,76.21
2023-05-06T22:15:10.599Z,76.31
2023-05-06T22:17:45.105Z,76.19
2023-05-06T22:20:15.150Z,76.22
2023-05-06T22:22:44.012Z,76.30
2023-05-06T22:25:12.664Z,76.28
2023-05-06T22:27:41.215Z,76.61
2023-05-06T22:30:18.665Z,76.31
2023-05-06T22:32:48.336Z,76.59
2023-05-06T22:35:17.137Z,76.34
2023-05-06T22:37:45.476Z,75.97
2023-05-06T22:40:18.844Z,76.08
2023-05-06T22:42:54.739Z,76.14
2023-05-06T22:45:26.705Z,75.94
2023-05-06T22:47:56.880Z,76.12
2023-05-06T22:50:27.007Z,76.01
2023-05-06T22:52:57.668Z,75.79
2023-05-06T22:55:27.493Z,75.88
2023-05-06T22:57:55.825Z,75.76
2023-05-06T23:00:24.057Z,75.95
2023-05-06T23:02:52.612Z,75.72
2023-05-06T23:05:22.419Z,75.48
2023-05-06T23:07:50.658Z,75.38
2023-05-06T23:10:18.912Z,75.51
2023-05-06T23:12:47.133Z,75.72
2023-05-06T23:15:15.388Z,75.56
2023-05-06T23:17:43.654Z,75.70
2023-05-06T23:20:22.388Z,75.47
2023-05-06T23:22:57.984Z,75.48
2023-05-06T23:25:26.895Z,75.58
2023-05-06T23:28:02.334Z,75.63
2023-05-06T23:30:33.590Z,75.45
2023-05-06T23:33:02.143Z,75.34
2023-05-06T23:35:32.254Z,75.40
2023-05-06T23:38:01.912Z,75.55
2023-05-06T23:40:35.719Z,75.25
2023-05-06T23:43:07.152Z,75.17
2023-05-06T23:45:37.884Z,75.09
2023-05-06T23:48:07.452Z,74.97
2023-05-06T23:50:35.830Z,75.10
2023-05-06T23:53:07.631Z,74.99
2023-05-06T23:55:36.054Z,75.03
2023-05-06T23:58:04.157Z,74.94
